Time;durP1;ratioP1;P1;durP2;ratioP2;P2;SDS_P1;SDS_P2;PMS_P1;PMS_P2;Temp;Humidity;BMP_temperature;BMP_pressure;BME280_temperature;BME280_humidity;BME280_pressure;Samples;Min_cycle;Max_cycle;Signal;HPM_P1;HPM_P2
2022/08/16 00:01:16;;;;;;;7.15;5.90;;;;;;;16.73;89.48;95026.94;5031382;28;20188;-82
2022/08/16 00:03:42;;;;;;;6.95;6.07;;;;;;;16.83;88.61;95027.34;5040586;28;20217;-82
2022/08/16 00:06:08;;;;;;;6.75;6.10;;;;;;;16.64;89.60;95024.47;5062540;28;20220;-81
2022/08/16 00:08:33;;;;;;;6.72;6.03;;;;;;;16.72;88.99;95028.75;5040913;28;20284;-80
2022/08/16 00:10:58;;;;;;;6.30;5.70;;;;;;;16.75;88.83;95035.41;5043617;28;20290;-81
2022/08/16 00:13:24;;;;;;;6.78;6.07;;;;;;;16.53;89.39;95026.84;5026212;28;20627;-81
2022/08/16 00:15:49;;;;;;;7.32;5.47;;;;;;;16.58;89.20;95025.22;5031669;28;20256;-82
2022/08/16 00:18:17;;;;;;;5.95;5.35;;;;;;;16.65;88.53;95026.06;5041608;28;20174;-82
2022/08/16 00:20:44;;;;;;;6.03;5.43;;;;;;;16.61;88.95;95029.31;5041288;28;20185;-82
2022/08/16 00:23:09;;;;;;;7.22;6.00;;;;;;;16.50;89.15;95027.22;5040091;28;20243;-82
2022/08/16 00:25:35;;;;;;;6.65;5.97;;;;;;;16.39;89.66;95037.28;5016850;28;20220;-82
2022/08/16 00:28:01;;;;;;;6.47;5.88;;;;;;;16.38;89.57;95035.66;5024960;28;20688;-81
2022/08/16 00:30:26;;;;;;;7.10;6.40;;;;;;;16.39;89.43;95037.28;5044543;28;20185;-82
2022/08/16 00:32:53;;;;;;;7.55;5.90;;;;;;;16.38;89.28;95034.84;5044130;28;20666;-82
2022/08/16 00:35:23;;;;;;;9.75;5.90;;;;;;;16.35;88.98;95030.81;5029003;28;20210;-82
2022/08/16 00:37:48;;;;;;;7.32;5.30;;;;;;;16.36;88.61;95031.63;5044868;28;20242;-81
2022/08/16 00:40:22;;;;;;;7.10;6.50;;;;;;;16.38;88.33;95034.84;5031409;28;20181;-81
2022/08/16 00:42:48;;;;;;;7.68;6.40;;;;;;;16.30;88.44;95037.63;5025843;28;20197;-80
2022/08/16 00:45:49;;;;;;;6.53;5.93;;;;;;;16.33;88.79;95034.63;5046270;28;20202;-81
2022/08/16 00:48:14;;;;;;;6.78;6.03;;;;;;;16.34;87.82;95036.22;5045515;28;20221;-81
2022/08/16 00:50:41;;;;;;;6.20;5.63;;;;;;;16.33;87.98;95037.25;5033691;28;20247;-83
2022/08/16 00:53:08;;;;;;;7.47;5.90;;;;;;;16.26;88.12;95036.41;5030330;28;20543;-81
2022/08/16 00:55:36;;;;;;;6.28;5.65;;;;;;;16.28;87.73;95027.34;5044869;28;20296;-82
2022/08/16 00:58:02;;;;;;;6.30;5.50;;;;;;;16.28;88.18;95031.78;5035910;28;20190;-81
2022/08/16 01:00:30;;;;;;;6.50;5.93;;;;;;;16.32;87.68;95030.38;5048472;28;20196;-82
2022/08/16 01:02:57;;;;;;;7.70;6.68;;;;;;;16.24;87.75;95033.97;5048296;28;20193;-81
2022/08/16 01:05:22;;;;;;;6.35;5.82;;;;;;;16.18;87.83;95033.97;5041130;28;20213;-81
2022/08/16 01:07:48;;;;;;;7.10;5.85;;;;;;;16.12;88.71;95038.97;5043975;28;20316;-81
2022/08/16 01:10:13;;;;;;;7.50;6.38;;;;;;;16.05;89.47;95037.31;5048306;28;20181;-81
2022/08/16 01:12:38;;;;;;;7.18;6.40;;;;;;;16.03;89.27;95031.47;5027342;28;20189;-82
2022/08/16 01:15:04;;;;;;;7.22;6.40;;;;;;;16.10;89.24;95032.31;5028151;28;20708;-82
2022/08/16 01:17:30;;;;;;;8.57;6.25;;;;;;;16.04;88.99;95027.84;5046702;28;20202;-82
2022/08/16 01:19:59;;;;;;;7.05;6.35;;;;;;;15.99;89.90;95027.59;5038217;28;20183;-80
2022/08/16 01:22:32;;;;;;;7.15;6.38;;;;;;;16.03;89.63;95028.84;5033648;28;20184;-82
2022/08/16 01:25:03;;;;;;;6.90;6.30;;;;;;;16.02;89.91;95028.03;5035595;28;20216;-81
2022/08/16 01:27:34;;;;;;;7.35;6.57;;;;;;;15.97;90.40;95038.28;5046590;28;20704;-82
2022/08/16 01:30:06;;;;;;;9.00;7.13;;;;;;;16.03;89.76;95042.75;5046237;28;20349;-82
2022/08/16 01:32:41;;;;;;;8.73;6.75;;;;;;;16.00;89.98;95030.06;5047915;28;20182;-81
2022/08/16 01:35:32;;;;;;;7.80;7.07;;;;;;;16.00;90.29;95026.63;5026558;28;20201;-82
2022/08/16 01:38:17;;;;;;;7.50;6.72;;;;;;;15.96;90.59;95035.84;5018473;28;20207;-82
2022/08/16 01:40:42;;;;;;;7.10;6.40;;;;;;;16.01;90.32;95033.47;5011938;28;20756;-81
2022/08/16 01:43:07;;;;;;;7.45;6.60;;;;;;;15.97;90.55;95042.69;5042348;28;20209;-81
2022/08/16 01:45:34;;;;;;;7.68;6.60;;;;;;;15.93;90.45;95033.63;5039107;28;20292;-82
2022/08/16 01:47:59;;;;;;;8.27;7.22;;;;;;;15.92;90.52;95030.19;5026266;28;20181;-81
2022/08/16 01:50:25;;;;;;;9.95;7.00;;;;;;;15.85;91.15;95034.59;5041636;28;20191;-81
2022/08/16 01:52:50;;;;;;;8.63;7.25;;;;;;;15.83;91.29;95026.13;5041642;28;20227;-82
2022/08/16 01:55:17;;;;;;;7.47;6.78;;;;;;;15.85;91.32;95024.13;5026629;28;20235;-81
2022/08/16 01:57:42;;;;;;;7.07;6.43;;;;;;;15.86;91.34;95030.97;5040376;28;20194;-82
2022/08/16 02:00:10;;;;;;;9.95;7.70;;;;;;;15.82;91.23;95032.38;5018900;28;20723;-82
2022/08/16 02:02:35;;;;;;;9.25;7.80;;;;;;;15.74;91.90;95027.28;5046314;28;20196;-82
2022/08/16 02:05:00;;;;;;;8.82;7.70;;;;;;;15.69;92.18;95025.22;5043283;28;20614;-82
2022/08/16 02:07:26;;;;;;;8.77;7.97;;;;;;;15.69;92.26;95019.97;5027473;28;20190;-82
2022/08/16 02:09:52;;;;;;;8.00;7.30;;;;;;;15.77;91.85;95030.31;5024168;28;20288;-83
2022/08/16 02:12:18;;;;;;;9.23;7.50;;;;;;;15.77;91.80;95032.91;5028659;28;20188;-81
2022/08/16 02:14:43;;;;;;;7.78;7.18;;;;;;;15.76;92.05;95028.69;5029775;28;20206;-81
2022/08/16 02:17:10;;;;;;;10.02;7.80;;;;;;;15.73;92.75;95031.72;5047203;28;20185;-81
2022/08/16 02:19:38;;;;;;;8.75;7.50;;;;;;;15.77;92.78;95032.91;5035689;28;20273;-82
2022/08/16 02:22:05;;;;;;;8.15;7.30;;;;;;;15.66;93.76;95025.59;5043252;28;20602;-82
2022/08/16 02:24:31;;;;;;;10.60;7.85;;;;;;;15.69;93.72;95029.66;5026386;28;20206;-82
2022/08/16 02:26:56;;;;;;;11.35;8.38;;;;;;;15.63;94.38;95022.56;5031022;28;20239;-80
2022/08/16 02:29:21;;;;;;;8.65;7.70;;;;;;;15.78;93.48;95025.88;5033428;28;20284;-81
2022/08/16 02:31:49;;;;;;;8.52;7.82;;;;;;;15.81;93.44;95020.25;5030011;28;20177;-81
2022/08/16 02:34:15;;;;;;;8.10;7.40;;;;;;;15.87;93.35;95016.88;5027419;28;20213;-81
2022/08/16 02:36:42;;;;;;;9.05;8.23;;;;;;;15.84;93.11;95022.50;5027382;28;20178;-81
2022/08/16 02:39:09;;;;;;;8.35;7.60;;;;;;;15.90;93.04;95015.66;5034488;28;20580;-82
2022/08/16 02:41:36;;;;;;;10.88;8.45;;;;;;;15.92;93.04;95013.69;5026450;28;20181;-81
2022/08/16 02:44:02;;;;;;;10.30;7.57;;;;;;;15.96;92.93;95010.47;5034324;28;20592;-80
2022/08/16 02:46:33;;;;;;;8.63;7.93;;;;;;;16.05;92.80;95014.53;5043561;28;20173;-82
2022/08/16 02:48:59;;;;;;;8.90;7.95;;;;;;;15.99;92.89;95020.56;5066899;28;20197;-80
2022/08/16 02:51:26;;;;;;;9.68;7.88;;;;;;;15.93;93.91;95010.88;5047285;28;20268;-81
2022/08/16 02:53:51;;;;;;;9.82;8.35;;;;;;;16.01;93.39;95007.28;5035089;28;20684;-81
2022/08/16 02:56:17;;;;;;;8.77;8.05;;;;;;;16.10;93.02;95003.50;5028930;28;20271;-81
2022/08/16 02:58:44;;;;;;;8.60;7.35;;;;;;;16.20;92.16;94998.72;5040864;28;20186;-80
2022/08/16 03:01:09;;;;;;;9.75;7.75;;;;;;;16.18;92.48;95000.72;5029919;28;20688;-81
2022/08/16 03:03:36;;;;;;;9.13;7.75;;;;;;;16.19;92.80;94998.91;5026499;28;20197;-80
2022/08/16 03:06:02;;;;;;;8.73;7.80;;;;;;;16.15;92.63;95003.72;5024837;28;20685;-81
2022/08/16 03:08:27;;;;;;;8.82;8.02;;;;;;;16.23;92.04;94994.88;5045086;28;20216;-82
2022/08/16 03:10:52;;;;;;;8.85;7.93;;;;;;;16.29;92.16;94988.88;5028967;28;20564;-81
2022/08/16 03:13:18;;;;;;;7.85;7.15;;;;;;;16.32;91.81;94988.47;5031670;28;20181;-80
2022/08/16 03:15:44;;;;;;;7.90;7.20;;;;;;;16.32;91.76;94983.22;5038826;28;20703;-81
2022/08/16 03:18:10;;;;;;;8.45;7.50;;;;;;;16.33;91.85;94992.69;5026342;28;20522;-81
2022/08/16 03:20:35;;;;;;;9.50;7.80;;;;;;;16.26;92.13;94989.28;5044073;28;20240;-82
2022/08/16 03:23:01;;;;;;;7.13;6.63;;;;;;;16.28;92.18;94987.25;5033336;28;20200;-83
2022/08/16 03:25:26;;;;;;;9.27;8.05;;;;;;;16.31;91.78;94981.59;5028443;28;20212;-82
2022/08/16 03:27:52;;;;;;;8.30;7.47;;;;;;;16.27;92.01;94983.03;5033148;28;20208;-82
2022/08/16 03:30:21;;;;;;;10.85;7.93;;;;;;;16.29;91.82;94994.09;5032907;28;20201;-83
2022/08/16 03:32:48;;;;;;;8.65;7.90;;;;;;;16.41;90.78;94989.91;5033687;28;20280;-82
2022/08/16 03:35:16;;;;;;;8.40;7.60;;;;;;;16.37;90.88;94984.25;5047047;28;20219;-82
2022/08/16 03:37:43;;;;;;;7.95;7.18;;;;;;;16.35;91.26;94990.72;5023449;28;20208;-81
2022/08/16 03:40:09;;;;;;;8.90;8.00;;;;;;;16.34;91.36;94986.44;5035222;28;20745;-80
2022/08/16 03:42:34;;;;;;;8.25;7.45;;;;;;;16.38;91.27;94985.88;5044783;28;20181;-82
2022/08/16 03:45:00;;;;;;;8.60;7.70;;;;;;;16.36;91.71;94980.03;5038913;28;20254;-80
2022/08/16 03:47:26;;;;;;;9.48;7.60;;;;;;;16.38;91.71;94985.06;5046267;28;20649;-82
2022/08/16 03:49:52;;;;;;;8.80;7.85;;;;;;;16.22;92.50;94988.03;5046569;28;20257;-80
2022/08/16 03:52:19;;;;;;;8.65;7.75;;;;;;;16.25;92.62;94988.44;5044711;28;20654;-81
2022/08/16 03:54:46;;;;;;;8.07;7.38;;;;;;;16.36;92.33;94987.09;5027402;28;20229;-83
2022/08/16 03:57:12;;;;;;;8.23;7.55;;;;;;;16.32;92.37;94985.84;5030775;28;20185;-82
2022/08/16 03:59:37;;;;;;;8.93;8.02;;;;;;;16.31;92.12;94979.78;5050865;28;20188;-82
2022/08/16 04:02:03;;;;;;;9.38;7.75;;;;;;;16.37;92.38;94992.13;5046999;28;20192;-82
2022/08/16 04:04:28;;;;;;;10.32;7.85;;;;;;;16.29;92.59;94984.44;5028194;28;20260;-80
2022/08/16 04:06:53;;;;;;;8.40;7.70;;;;;;;16.31;92.45;94989.47;5043316;28;20177;-80
2022/08/16 04:09:19;;;;;;;8.77;7.97;;;;;;;16.31;92.06;94981.59;5067027;28;20220;-81
2022/08/16 04:11:44;;;;;;;8.32;7.47;;;;;;;16.33;91.95;94976.97;5048157;28;20600;-80
2022/08/16 04:14:09;;;;;;;9.07;8.27;;;;;;;16.38;91.49;94975.38;5029672;28;20267;-82
2022/08/16 04:16:35;;;;;;;8.95;8.00;;;;;;;16.29;91.41;94988.88;5034135;28;20177;-81
2022/08/16 04:19:02;;;;;;;8.35;7.38;;;;;;;16.30;91.38;94990.47;5040108;28;20182;-81
2022/08/16 04:21:29;;;;;;;9.50;8.70;;;;;;;16.34;90.93;94986.44;5048529;28;20258;-80
2022/08/16 04:23:54;;;;;;;10.02;8.35;;;;;;;16.30;91.24;94996.53;5037539;28;20185;-80
2022/08/16 04:26:19;;;;;;;8.77;7.90;;;;;;;16.24;91.66;94999.91;5029408;28;20612;-80
2022/08/16 04:28:45;;;;;;;11.18;8.70;;;;;;;16.23;92.12;94997.50;5051237;28;20266;-81
2022/08/16 04:31:10;;;;;;;10.30;8.65;;;;;;;16.26;91.67;94991.88;5046891;28;20185;-81
2022/08/16 04:33:35;;;;;;;8.90;8.00;;;;;;;16.31;90.71;94992.09;5035024;28;20189;-81
2022/08/16 04:36:01;;;;;;;8.50;7.60;;;;;;;16.45;90.25;94995.56;5043635;28;20205;-81
2022/08/16 04:38:26;;;;;;;9.30;8.40;;;;;;;16.41;89.73;95001.19;5047866;28;20687;-82
2022/08/16 04:40:52;;;;;;;8.80;8.07;;;;;;;16.52;89.44;95007.69;5036051;28;20185;-81
2022/08/16 04:43:17;;;;;;;9.70;8.68;;;;;;;16.55;89.82;95003.88;5037090;28;20185;-80
2022/08/16 04:45:43;;;;;;;9.77;8.77;;;;;;;16.61;89.35;95008.34;5026146;28;20589;-81
2022/08/16 04:48:09;;;;;;;9.15;8.40;;;;;;;16.51;90.07;95011.28;5028549;28;20204;-80
2022/08/16 04:50:37;;;;;;;9.43;8.30;;;;;;;16.46;89.91;95013.72;5047138;28;20189;-84
2022/08/16 04:53:03;;;;;;;9.02;7.97;;;;;;;16.56;89.71;95016.78;5031006;28;20242;-86
2022/08/16 04:55:29;;;;;;;8.30;7.45;;;;;;;16.55;89.69;95020.41;5036573;28;20590;-84
2022/08/16 04:57:55;;;;;;;10.02;8.45;;;;;;;16.48;89.41;95024.81;5044698;28;20182;-84
2022/08/16 05:00:27;;;;;;;9.38;8.52;;;;;;;16.45;89.93;95025.22;5028422;28;20657;-85
2022/08/16 05:02:53;;;;;;;9.15;8.35;;;;;;;16.43;89.94;95022.78;5030658;28;20184;-84
2022/08/16 05:05:20;;;;;;;9.45;7.93;;;;;;;16.44;89.67;95020.97;5034236;28;20565;-83
2022/08/16 05:07:46;;;;;;;9.40;8.50;;;;;;;16.62;89.11;95030.91;5033757;28;20177;-84
2022/08/16 05:10:11;;;;;;;9.10;8.20;;;;;;;16.51;89.81;95029.66;5057273;28;20207;-84
2022/08/16 05:12:37;;;;;;;9.38;8.30;;;;;;;16.74;88.98;95039.03;5058444;28;20158;-82
2022/08/16 05:15:03;;;;;;;8.43;7.70;;;;;;;16.86;88.41;95038.25;5049710;28;20204;-83
2022/08/16 05:17:30;;;;;;;9.50;8.68;;;;;;;17.03;87.74;95043.94;5076094;28;20173;-83
2022/08/16 05:19:56;;;;;;;10.45;8.82;;;;;;;17.16;86.52;95038.72;5057344;28;20183;-83
2022/08/16 05:22:21;;;;;;;10.13;7.90;;;;;;;17.24;85.61;95038.53;5050559;28;20212;-84
2022/08/16 05:24:48;;;;;;;8.48;7.55;;;;;;;17.34;84.87;95040.75;5030028;28;20689;-84
2022/08/16 05:27:13;;;;;;;8.93;7.78;;;;;;;17.47;84.35;95042.53;5032158;28;20271;-85
2022/08/16 05:29:41;;;;;;;8.77;7.38;;;;;;;17.75;83.24;95035.28;5028883;28;20295;-83
2022/08/16 05:32:07;;;;;;;7.55;6.95;;;;;;;17.75;82.91;95042.34;5048294;28;20224;-84
2022/08/16 05:34:32;;;;;;;8.07;7.38;;;;;;;17.74;82.55;95038.13;5033168;28;20246;-84
2022/08/16 05:36:58;;;;;;;9.18;7.30;;;;;;;17.93;81.51;95039.09;5044107;28;20188;-84
2022/08/16 05:39:24;;;;;;;7.65;6.93;;;;;;;17.86;81.40;95041.75;5042538;28;20215;-84
2022/08/16 05:41:50;;;;;;;7.70;6.90;;;;;;;17.93;81.15;95041.72;5025202;28;20193;-83
2022/08/16 05:44:16;;;;;;;6.63;5.95;;;;;;;18.20;79.42;95045.94;5031995;28;20701;-79
2022/08/16 05:46:43;;;;;;;7.20;6.60;;;;;;;18.24;79.41;95049.75;5047868;28;20201;-79
2022/08/16 05:49:09;;;;;;;7.15;6.47;;;;;;;18.39;78.92;95054.75;5046155;28;20197;-79
2022/08/16 05:51:35;;;;;;;9.32;6.88;;;;;;;18.54;77.68;95051.84;5032434;28;20610;-80
2022/08/16 05:54:00;;;;;;;8.35;7.50;;;;;;;18.73;77.68;95055.44;5030423;28;20181;-80
2022/08/16 05:56:25;;;;;;;7.10;6.45;;;;;;;18.82;76.72;95055.00;5044921;28;20189;-80
2022/08/16 05:58:50;;;;;;;7.15;6.50;;;;;;;19.16;74.85;95058.22;5043666;28;20185;-82
2022/08/16 06:01:16;;;;;;;7.70;6.88;;;;;;;18.99;75.08;95063.19;5021395;28;20693;-81
2022/08/16 06:03:41;;;;;;;7.13;6.47;;;;;;;19.23;74.54;95061.63;5047244;28;20240;-81
2022/08/16 06:06:07;;;;;;;8.05;6.82;;;;;;;19.16;74.44;95071.38;5046786;28;20184;-81
2022/08/16 06:08:32;;;;;;;6.93;6.30;;;;;;;19.33;73.87;95074.31;5025830;28;20349;-81
2022/08/16 06:10:58;;;;;;;7.15;6.57;;;;;;;19.35;73.17;95070.47;5028288;28;20744;-80
2022/08/16 06:13:23;;;;;;;6.75;6.25;;;;;;;19.14;74.03;95073.44;5026637;28;20177;-82
2022/08/16 06:15:50;;;;;;;7.30;6.65;;;;;;;19.26;74.60;95074.38;5030819;28;20272;-81
2022/08/16 06:18:17;;;;;;;7.28;6.57;;;;;;;19.62;73.02;95070.31;5032827;28;20174;-80
2022/08/16 06:20:42;;;;;;;7.72;6.57;;;;;;;19.49;73.20;95071.16;5030143;28;20189;-82
2022/08/16 06:23:08;;;;;;;7.53;6.63;;;;;;;19.57;72.63;95070.13;5046975;28;20200;-79
2022/08/16 06:25:33;;;;;;;7.22;6.63;;;;;;;19.84;70.37;95071.53;5046916;28;20204;-81
2022/08/16 06:27:58;;;;;;;7.65;6.70;;;;;;;19.78;71.19;95075.81;5035708;28;20201;-80
2022/08/16 06:30:24;;;;;;;8.18;6.95;;;;;;;19.46;72.63;95072.41;5061764;28;20274;-80
2022/08/16 06:32:49;;;;;;;7.63;6.90;;;;;;;19.51;73.22;95066.50;5048710;28;20191;-81
2022/08/16 06:35:14;;;;;;;7.95;7.10;;;;;;;19.51;73.77;95079.66;5029190;28;20296;-81
2022/08/16 06:37:40;;;;;;;8.40;6.90;;;;;;;19.85;72.81;95081.03;5043596;28;20529;-83
2022/08/16 06:40:06;;;;;;;7.85;6.28;;;;;;;20.70;69.24;95073.28;5032065;28;20668;-83
2022/08/16 06:42:32;;;;;;;7.05;6.35;;;;;;;20.81;67.75;95074.38;5051915;28;20189;-83
2022/08/16 06:44:57;;;;;;;6.90;5.88;;;;;;;22.08;63.12;95079.41;5028650;28;20722;-82
2022/08/16 06:47:23;;;;;;;6.68;6.03;;;;;;;23.24;57.22;95075.72;5042744;28;20185;-82
2022/08/16 06:49:48;;;;;;;5.95;5.45;;;;;;;24.51;54.61;95082.25;5029999;28;20618;-82
2022/08/16 06:52:13;;;;;;;8.10;5.78;;;;;;;25.62;49.97;95077.38;5035528;28;20266;-82
2022/08/16 06:54:38;;;;;;;7.05;5.40;;;;;;;26.11;48.08;95071.94;5064575;28;20266;-82
2022/08/16 06:57:05;;;;;;;7.10;5.03;;;;;;;26.50;46.76;95076.97;5029288;28;20193;-83
2022/08/16 06:59:31;;;;;;;6.30;5.13;;;;;;;26.61;45.82;95081.31;5065578;28;20660;-83
2022/08/16 07:01:57;;;;;;;5.72;4.93;;;;;;;27.00;44.59;95084.38;5029198;28;20193;-83
2022/08/16 07:04:22;;;;;;;7.03;5.10;;;;;;;26.85;44.28;95083.50;5047136;28;20204;-82
2022/08/16 07:06:47;;;;;;;5.28;4.80;;;;;;;27.45;43.59;95088.25;5037491;28;20197;-83
2022/08/16 07:09:13;;;;;;;5.57;5.05;;;;;;;27.50;43.13;95092.81;5030534;28;20197;-82
2022/08/16 07:11:39;;;;;;;6.93;5.03;;;;;;;26.61;44.60;95089.28;5026665;28;20192;-83
2022/08/16 07:14:05;;;;;;;6.45;5.22;;;;;;;26.42;46.72;95086.25;5031783;28;20587;-84
2022/08/16 07:16:31;;;;;;;9.40;5.28;;;;;;;26.21;45.63;95084.50;5043541;28;20178;-82
2022/08/16 07:18:58;;;;;;;6.95;5.43;;;;;;;25.70;46.99;95090.22;5045741;28;20213;-83
2022/08/16 07:21:24;;;;;;;6.00;5.47;;;;;;;24.48;51.06;95083.56;5045715;28;20185;-83
2022/08/16 07:23:49;;;;;;;8.23;5.70;;;;;;;24.15;51.29;95086.25;5027717;28;20188;-83
2022/08/16 07:26:24;;;;;;;6.78;5.60;;;;;;;23.64;52.01;95085.44;5046399;28;20781;-81
2022/08/16 07:28:49;;;;;;;6.47;5.72;;;;;;;23.24;52.31;95083.69;5034315;28;20258;-82
2022/08/16 07:31:16;;;;;;;7.50;6.43;;;;;;;23.66;52.22;95086.00;5031532;28;20414;-83
2022/08/16 07:33:43;;;;;;;7.60;6.32;;;;;;;23.51;53.69;95075.94;5040463;28;20185;-81
2022/08/16 07:36:09;;;;;;;7.13;6.22;;;;;;;23.50;54.57;95081.44;5021394;28;20678;-81
2022/08/16 07:38:35;;;;;;;6.85;6.15;;;;;;;23.70;53.90;95085.28;5030985;28;20186;-81
2022/08/16 07:41:01;;;;;;;9.95;6.28;;;;;;;23.53;53.48;95075.69;5032971;28;20192;-83
2022/08/16 07:43:26;;;;;;;10.57;6.55;;;;;;;23.46;53.76;95084.59;5049929;28;20223;-83
2022/08/16 07:45:52;;;;;;;8.35;6.65;;;;;;;23.53;53.61;95086.28;5033763;28;20226;-83
2022/08/16 07:48:18;;;;;;;10.05;6.60;;;;;;;23.78;52.28;95078.78;5030826;28;20212;-83
2022/08/16 07:50:44;;;;;;;8.63;6.43;;;;;;;23.62;52.82;95090.19;5033028;28;20190;-81
2022/08/16 07:53:10;;;;;;;8.82;6.30;;;;;;;23.23;52.90;95086.53;5031734;28;20197;-82
2022/08/16 07:55:35;;;;;;;7.13;6.30;;;;;;;23.45;51.12;95092.78;5029825;28;20217;-81
2022/08/16 07:58:01;;;;;;;7.35;6.40;;;;;;;23.63;52.00;95097.09;5030097;28;20197;-81
2022/08/16 08:00:27;;;;;;;6.70;6.10;;;;;;;23.68;51.89;95105.13;5050252;28;20271;-83
2022/08/16 08:02:54;;;;;;;7.30;6.40;;;;;;;23.46;51.97;95097.84;5049335;28;20261;-80
2022/08/16 08:05:20;;;;;;;7.72;6.93;;;;;;;23.80;51.43;95110.34;5029553;28;20668;-83
2022/08/16 08:07:45;;;;;;;7.75;7.05;;;;;;;23.57;51.77;95108.59;5049805;28;20246;-81
2022/08/16 08:10:10;;;;;;;7.60;6.90;;;;;;;23.63;52.07;95113.00;5046892;28;20201;-82
2022/08/16 08:12:36;;;;;;;8.02;7.32;;;;;;;23.35;52.27;95111.97;5036115;28;20189;-82
2022/08/16 08:15:04;;;;;;;7.88;6.90;;;;;;;23.32;52.73;95107.16;5046325;28;20209;-82
2022/08/16 08:17:30;;;;;;;8.23;7.13;;;;;;;23.22;52.49;95114.88;5034158;28;20182;-80
2022/08/16 08:19:55;;;;;;;7.93;7.13;;;;;;;22.82;53.82;95107.75;5029537;28;20592;-82
2022/08/16 08:22:21;;;;;;;9.00;6.43;;;;;;;23.36;52.95;95116.22;5034933;28;20280;-80
2022/08/16 08:24:46;;;;;;;8.10;7.10;;;;;;;23.10;54.73;95112.28;5030497;28;20246;-82
2022/08/16 08:27:12;;;;;;;6.78;5.88;;;;;;;23.09;54.64;95117.81;5048877;28;20182;-83
2022/08/16 08:29:37;;;;;;;10.50;6.95;;;;;;;23.26;54.08;95117.88;5033210;28;20209;-83
2022/08/16 08:32:04;;;;;;;6.93;6.20;;;;;;;23.57;52.52;95113.91;5037058;28;20806;-82
2022/08/16 08:34:29;;;;;;;9.07;7.15;;;;;;;23.16;53.33;95113.19;5032040;28;20289;-83
2022/08/16 08:36:54;;;;;;;10.82;6.63;;;;;;;22.82;54.95;95107.75;5048550;28;20212;-83
2022/08/16 08:39:20;;;;;;;8.73;6.88;;;;;;;23.45;52.94;95116.63;5045582;28;20182;-83
2022/08/16 08:41:46;;;;;;;7.25;6.50;;;;;;;24.10;51.31;95115.31;5047872;28;20201;-81
2022/08/16 08:44:12;;;;;;;6.68;6.07;;;;;;;23.97;48.90;95113.81;5030004;28;20204;-82
2022/08/16 08:46:38;;;;;;;5.70;5.13;;;;;;;24.42;48.32;95121.69;5044705;28;20186;-82
2022/08/16 08:49:06;;;;;;;6.80;5.80;;;;;;;24.52;48.51;95121.00;5025645;28;20221;-82
2022/08/16 08:51:32;;;;;;;9.15;5.18;;;;;;;25.07;47.71;95122.78;5050430;28;20203;-82
2022/08/16 08:53:57;;;;;;;6.28;5.68;;;;;;;25.16;47.02;95129.28;5044337;28;20197;-81
2022/08/16 08:56:23;;;;;;;9.80;6.53;;;;;;;24.74;48.70;95119.19;5049504;28;20200;-82
2022/08/16 08:58:48;;;;;;;7.30;5.68;;;;;;;24.68;49.36;95122.81;5036391;28;20189;-82
2022/08/16 09:01:16;;;;;;;7.03;6.28;;;;;;;24.74;48.60;95134.31;5050868;28;20181;-81
2022/08/16 09:03:41;;;;;;;10.77;6.88;;;;;;;24.10;50.17;95129.38;5045231;28;20186;-81
2022/08/16 09:06:07;;;;;;;7.18;6.53;;;;;;;24.05;50.30;95141.78;5046606;28;20186;-82
2022/08/16 09:08:33;;;;;;;9.32;6.80;;;;;;;23.97;49.83;95143.78;5035014;28;20213;-83
2022/08/16 09:11:02;;;;;;;7.55;6.85;;;;;;;23.70;51.20;95143.59;5044341;28;20644;-82
2022/08/16 09:13:27;;;;;;;11.40;6.97;;;;;;;23.34;50.99;95136.03;5043648;28;20189;-83
2022/08/16 09:15:57;;;;;;;9.00;6.45;;;;;;;23.28;50.51;95144.94;5046662;28;20212;-82
2022/08/16 09:18:22;;;;;;;7.13;6.00;;;;;;;22.98;51.63;95139.84;5044098;28;20182;-81
2022/08/16 09:20:51;;;;;;;8.32;6.00;;;;;;;23.23;51.02;95142.16;5031465;28;20314;-82
2022/08/16 09:23:17;;;;;;;8.88;6.40;;;;;;;23.59;51.39;95144.47;5045063;28;20658;-82
2022/08/16 09:25:42;;;;;;;7.55;6.78;;;;;;;23.52;51.04;95141.13;5029586;28;20213;-81
2022/08/16 09:28:08;;;;;;;7.75;6.15;;;;;;;23.97;48.87;95137.69;5030695;28;20209;-82
2022/08/16 09:30:34;;;;;;;6.32;5.70;;;;;;;23.36;50.04;95140.06;5044734;28;20284;-82
2022/08/16 09:33:00;;;;;;;7.35;5.40;;;;;;;23.15;49.12;95133.56;5062580;28;20209;-82
2022/08/16 09:35:27;;;;;;;6.63;5.93;;;;;;;23.06;49.89;95137.66;5030919;28;20569;-82
2022/08/16 09:37:52;;;;;;;8.07;6.20;;;;;;;23.13;49.83;95133.00;5033219;28;20185;-82
2022/08/16 09:40:18;;;;;;;8.05;6.15;;;;;;;23.09;50.40;95133.72;5046399;28;20188;-82
2022/08/16 09:42:43;;;;;;;7.10;6.43;;;;;;;23.72;49.92;95146.00;5033991;28;20189;-81
2022/08/16 09:45:09;;;;;;;6.82;6.13;;;;;;;24.10;48.48;95141.84;5027186;28;20268;-82
2022/08/16 09:47:39;;;;;;;10.07;5.78;;;;;;;24.39;47.84;95150.56;5049114;28;20189;-81
2022/08/16 09:50:07;;;;;;;6.47;5.78;;;;;;;24.40;48.12;95147.66;5025324;28;20359;-82
2022/08/16 09:52:36;;;;;;;6.70;6.18;;;;;;;24.31;48.48;95143.78;5041501;28;20347;-82
2022/08/16 09:55:05;;;;;;;7.07;6.35;;;;;;;24.38;48.41;95147.09;5029127;28;20236;-83
2022/08/16 09:57:31;;;;;;;7.18;6.47;;;;;;;24.76;49.00;95145.50;5026191;28;20181;-82
2022/08/16 09:59:57;;;;;;;8.35;6.00;;;;;;;24.95;48.10;95149.47;5027424;28;20181;-82
2022/08/16 10:02:24;;;;;;;8.15;6.80;;;;;;;24.24;48.69;95151.91;5030646;28;20182;-81
2022/08/16 10:04:49;;;;;;;7.55;6.70;;;;;;;24.08;48.79;95151.91;5041858;28;20266;-82
2022/08/16 10:07:16;;;;;;;7.25;6.53;;;;;;;24.08;49.28;95154.56;5038895;28;20649;-82
2022/08/16 10:09:43;;;;;;;8.45;6.63;;;;;;;23.87;50.50;95150.78;5036790;28;20697;-81
2022/08/16 10:14:52;;;;;;;7.53;6.18;;;;;;;23.82;50.24;95154.13;5043996;28;20215;-82
2022/08/16 10:17:18;;;;;;;9.48;6.93;;;;;;;23.99;50.79;95147.00;5039601;28;20185;-81
2022/08/16 10:19:45;;;;;;;7.18;6.43;;;;;;;24.36;49.00;95146.53;5043508;28;20188;-82
2022/08/16 10:22:11;;;;;;;7.85;6.88;;;;;;;24.66;48.29;95151.47;5045144;28;20189;-83
2022/08/16 10:24:36;;;;;;;7.90;6.80;;;;;;;24.54;48.20;95146.25;5045089;28;20236;-80
2022/08/16 10:27:01;;;;;;;7.47;6.57;;;;;;;24.08;48.72;95146.59;5030066;28;20796;-80
2022/08/16 10:29:27;;;;;;;7.03;6.43;;;;;;;23.80;50.50;95140.31;5041340;28;20716;-82
2022/08/16 10:31:52;;;;;;;7.32;6.32;;;;;;;23.97;49.90;95146.44;5043062;28;20185;-81
2022/08/16 10:34:17;;;;;;;6.68;6.07;;;;;;;24.09;49.07;95138.41;5028190;28;20205;-81
2022/08/16 10:36:43;;;;;;;7.00;6.40;;;;;;;23.89;50.33;95146.03;5042919;28;20194;-81
2022/08/16 10:39:08;;;;;;;6.95;6.20;;;;;;;23.85;49.05;95143.03;5028741;28;20224;-82
2022/08/16 10:41:33;;;;;;;7.25;6.47;;;;;;;24.31;47.59;95141.13;5045271;28;20482;-81
2022/08/16 10:43:59;;;;;;;6.68;5.55;;;;;;;24.46;47.13;95146.66;5024981;28;20193;-81
2022/08/16 10:46:25;;;;;;;6.68;6.07;;;;;;;24.35;46.98;95146.78;5029522;28;20188;-83
2022/08/16 10:48:51;;;;;;;6.47;5.78;;;;;;;24.59;47.48;95150.84;5044213;28;20350;-81
2022/08/16 10:51:16;;;;;;;5.80;5.22;;;;;;;24.98;46.91;95153.47;5040011;28;20189;-80
2022/08/16 10:53:42;;;;;;;7.93;6.38;;;;;;;24.93;46.46;95143.59;5027383;28;20560;-80
2022/08/16 10:56:09;;;;;;;7.18;6.10;;;;;;;25.27;45.40;95154.13;5043967;28;20637;-81
2022/08/16 10:58:35;;;;;;;6.82;5.78;;;;;;;25.37;45.42;95154.22;5045748;28;20187;-81
2022/08/16 11:01:05;;;;;;;6.72;5.90;;;;;;;25.48;44.53;95155.13;5040768;28;20174;-84
2022/08/16 11:03:30;;;;;;;7.43;5.78;;;;;;;25.51;44.53;95149.31;5043941;28;20196;-82
2022/08/16 11:05:56;;;;;;;6.68;6.18;;;;;;;25.79;44.78;95145.63;5032396;28;20331;-82
2022/08/16 11:08:22;;;;;;;7.30;6.05;;;;;;;25.55;44.19;95151.22;5017997;28;20243;-82
2022/08/16 11:10:48;;;;;;;6.10;5.53;;;;;;;25.31;44.93;95150.69;5023774;28;20201;-81
2022/08/16 11:13:35;;;;;;;7.43;5.90;;;;;;;25.75;43.61;95160.47;5027617;28;20618;-88
2022/08/16 11:16:35;;;;;;;9.02;5.78;;;;;;;25.68;43.89;95148.16;5036269;28;20201;-90
2022/08/16 11:19:00;;;;;;;8.85;6.32;;;;;;;26.14;43.77;95153.88;5017366;28;20741;-81
2022/08/16 11:21:25;;;;;;;6.85;5.88;;;;;;;26.67;42.53;95156.69;5059307;28;20275;-82
2022/08/16 11:23:52;;;;;;;5.72;5.10;;;;;;;26.12;42.41;95147.22;5042864;28;20205;-80
2022/08/16 11:26:18;;;;;;;5.97;5.45;;;;;;;26.55;41.95;95146.22;5033897;28;20200;-81
2022/08/16 11:28:44;;;;;;;5.70;5.10;;;;;;;26.46;42.37;95150.44;5062960;28;20231;-81
2022/08/16 11:31:10;;;;;;;5.55;5.00;;;;;;;26.20;41.54;95160.06;5034616;28;20180;-81